<?xml version="1.0" encoding="UTF-8" standalone="no" ?>
<gpx xmlns="http://www.topografix.com/GPX/1/1" xmlns:xsi="http://www.w3.org/2001/XMLSchema-instance" xsi:schemaLocation="http://www.topografix.com/GPX/1/1 http://www.topografix.com/GPX/1/1/gpx.xsd" version="1.1" creator="VisuGPX - https://www.visugpx.com">
  <metadata>
    <name>Perso-HteMarne-23-07-14-IsEnBassigny</name>
    <desc><![CDATA[Rando de Jean Claude à Is en Bassigny]]></desc>
  </metadata>
  <trk>
    <name><![CDATA[23-07-02-Is-Essey-Ninville-Les Etiquets-Is]]></name>
    <trkseg>
      <trkpt lat="48.03404" lon="5.44409">
        <ele>394</ele>
        <time>2023-07-14T05:03:48Z</time>
      </trkpt>
      <trkpt lat="48.0341" lon="5.44402">
        <ele>394</ele>
        <time>2023-07-14T05:04:09Z</time>
      </trkpt>
      <trkpt lat="48.03417" lon="5.44375">
        <ele>393</ele>
        <time>2023-07-14T05:04:26Z</time>
      </trkpt>
      <trkpt lat="48.03426" lon="5.44341">
        <ele>393</ele>
        <time>2023-07-14T05:04:47Z</time>
      </trkpt>
      <trkpt lat="48.03433" lon="5.4432">
        <ele>393</ele>
        <time>2023-07-14T05:05:00Z</time>
      </trkpt>
      <trkpt lat="48.03441" lon="5.44282">
        <ele>393</ele>
        <time>2023-07-14T05:05:23Z</time>
      </trkpt>
      <trkpt lat="48.03446" lon="5.44238">
        <ele>393</ele>
        <time>2023-07-14T05:05:48Z</time>
      </trkpt>
      <trkpt lat="48.03453" lon="5.44202">
        <ele>394</ele>
        <time>2023-07-14T05:06:10Z</time>
      </trkpt>
      <trkpt lat="48.03457" lon="5.44163">
        <ele>394</ele>
        <time>2023-07-14T05:06:32Z</time>
      </trkpt>
      <trkpt lat="48.03465" lon="5.44126">
        <ele>395</ele>
        <time>2023-07-14T05:06:55Z</time>
      </trkpt>
      <trkpt lat="48.03471" lon="5.44083">
        <ele>394</ele>
        <time>2023-07-14T05:07:20Z</time>
      </trkpt>
      <trkpt lat="48.0348" lon="5.4405">
        <ele>393</ele>
        <time>2023-07-14T05:07:40Z</time>
      </trkpt>
      <trkpt lat="48.03492" lon="5.44007">
        <ele>393</ele>
        <time>2023-07-14T05:08:07Z</time>
      </trkpt>
      <trkpt lat="48.03502" lon="5.43968">
        <ele>393</ele>
        <time>2023-07-14T05:08:30Z</time>
      </trkpt>
      <trkpt lat="48.03514" lon="5.43929">
        <ele>393</ele>
        <time>2023-07-14T05:08:55Z</time>
      </trkpt>
      <trkpt lat="48.03523" lon="5.4389">
        <ele>392</ele>
        <time>2023-07-14T05:09:19Z</time>
      </trkpt>
      <trkpt lat="48.03538" lon="5.43851">
        <ele>392</ele>
        <time>2023-07-14T05:09:45Z</time>
      </trkpt>
      <trkpt lat="48.03552" lon="5.43817">
        <ele>392</ele>
        <time>2023-07-14T05:10:09Z</time>
      </trkpt>
      <trkpt lat="48.03564" lon="5.43778">
        <ele>392</ele>
        <time>2023-07-14T05:10:34Z</time>
      </trkpt>
      <trkpt lat="48.03575" lon="5.43737">
        <ele>393</ele>
        <time>2023-07-14T05:11:00Z</time>
      </trkpt>
      <trkpt lat="48.0358" lon="5.43699">
        <ele>392</ele>
        <time>2023-07-14T05:11:23Z</time>
      </trkpt>
      <trkpt lat="48.03588" lon="5.43653">
        <ele>392</ele>
        <time>2023-07-14T05:11:51Z</time>
      </trkpt>
      <trkpt lat="48.03598" lon="5.43618">
        <ele>391</ele>
        <time>2023-07-14T05:12:13Z</time>
      </trkpt>
      <trkpt lat="48.03604" lon="5.43597">
        <ele>391</ele>
        <time>2023-07-14T05:12:30Z</time>
      </trkpt>
      <trkpt lat="48.03621" lon="5.4356">
        <ele>391</ele>
        <time>2023-07-14T05:12:56Z</time>
      </trkpt>
      <trkpt lat="48.03631" lon="5.43535">
        <ele>390</ele>
        <time>2023-07-14T05:13:13Z</time>
      </trkpt>
      <trkpt lat="48.03642" lon="5.43497">
        <ele>389</ele>
        <time>2023-07-14T05:13:37Z</time>
      </trkpt>
      <trkpt lat="48.03656" lon="5.43461">
        <ele>389</ele>
        <time>2023-07-14T05:14:01Z</time>
      </trkpt>
      <trkpt lat="48.03665" lon="5.43424">
        <ele>389</ele>
        <time>2023-07-14T05:14:23Z</time>
      </trkpt>
      <trkpt lat="48.03676" lon="5.43381">
        <ele>388</ele>
        <time>2023-07-14T05:14:49Z</time>
      </trkpt>
      <trkpt lat="48.03688" lon="5.43334">
        <ele>388</ele>
        <time>2023-07-14T05:15:17Z</time>
      </trkpt>
      <trkpt lat="48.03701" lon="5.43298">
        <ele>388</ele>
        <time>2023-07-14T05:15:40Z</time>
      </trkpt>
      <trkpt lat="48.03715" lon="5.43259">
        <ele>386</ele>
        <time>2023-07-14T05:16:06Z</time>
      </trkpt>
      <trkpt lat="48.03732" lon="5.43229">
        <ele>386</ele>
        <time>2023-07-14T05:16:28Z</time>
      </trkpt>
      <trkpt lat="48.0375" lon="5.43198">
        <ele>385</ele>
        <time>2023-07-14T05:16:52Z</time>
      </trkpt>
      <trkpt lat="48.0377" lon="5.43166">
        <ele>384</ele>
        <time>2023-07-14T05:17:19Z</time>
      </trkpt>
      <trkpt lat="48.03791" lon="5.4313">
        <ele>382</ele>
        <time>2023-07-14T05:17:45Z</time>
      </trkpt>
      <trkpt lat="48.03806" lon="5.43095">
        <ele>381</ele>
        <time>2023-07-14T05:18:09Z</time>
      </trkpt>
      <trkpt lat="48.03828" lon="5.43055">
        <ele>382</ele>
        <time>2023-07-14T05:18:38Z</time>
      </trkpt>
      <trkpt lat="48.03845" lon="5.43018">
        <ele>381</ele>
        <time>2023-07-14T05:19:03Z</time>
      </trkpt>
      <trkpt lat="48.03866" lon="5.4298">
        <ele>381</ele>
        <time>2023-07-14T05:19:30Z</time>
      </trkpt>
      <trkpt lat="48.03881" lon="5.42946">
        <ele>380</ele>
        <time>2023-07-14T05:19:55Z</time>
      </trkpt>
      <trkpt lat="48.03901" lon="5.42911">
        <ele>380</ele>
        <time>2023-07-14T05:20:21Z</time>
      </trkpt>
      <trkpt lat="48.03921" lon="5.42876">
        <ele>381</ele>
        <time>2023-07-14T05:20:46Z</time>
      </trkpt>
      <trkpt lat="48.03941" lon="5.42854">
        <ele>381</ele>
        <time>2023-07-14T05:21:07Z</time>
      </trkpt>
      <trkpt lat="48.03958" lon="5.42836">
        <ele>380</ele>
        <time>2023-07-14T05:21:25Z</time>
      </trkpt>
      <trkpt lat="48.03981" lon="5.42812">
        <ele>380</ele>
        <time>2023-07-14T05:21:48Z</time>
      </trkpt>
      <trkpt lat="48.04004" lon="5.42787">
        <ele>378</ele>
        <time>2023-07-14T05:22:12Z</time>
      </trkpt>
      <trkpt lat="48.04025" lon="5.42764">
        <ele>377</ele>
        <time>2023-07-14T05:22:34Z</time>
      </trkpt>
      <trkpt lat="48.04052" lon="5.42743">
        <ele>378</ele>
        <time>2023-07-14T05:22:59Z</time>
      </trkpt>
      <trkpt lat="48.0408" lon="5.4273">
        <ele>377</ele>
        <time>2023-07-14T05:23:24Z</time>
      </trkpt>
      <trkpt lat="48.04097" lon="5.42718">
        <ele>377</ele>
        <time>2023-07-14T05:23:41Z</time>
      </trkpt>
      <trkpt lat="48.04116" lon="5.42692">
        <ele>378</ele>
        <time>2023-07-14T05:24:04Z</time>
      </trkpt>
      <trkpt lat="48.04137" lon="5.42658">
        <ele>378</ele>
        <time>2023-07-14T05:24:31Z</time>
      </trkpt>
      <trkpt lat="48.0416" lon="5.42625">
        <ele>377</ele>
        <time>2023-07-14T05:24:58Z</time>
      </trkpt>
      <trkpt lat="48.04188" lon="5.42595">
        <ele>376</ele>
        <time>2023-07-14T05:25:27Z</time>
      </trkpt>
      <trkpt lat="48.0421" lon="5.42571">
        <ele>376</ele>
        <time>2023-07-14T05:25:51Z</time>
      </trkpt>
      <trkpt lat="48.04233" lon="5.42541">
        <ele>375</ele>
        <time>2023-07-14T05:26:16Z</time>
      </trkpt>
      <trkpt lat="48.04254" lon="5.42513">
        <ele>376</ele>
        <time>2023-07-14T05:26:41Z</time>
      </trkpt>
      <trkpt lat="48.04278" lon="5.4249">
        <ele>376</ele>
        <time>2023-07-14T05:27:06Z</time>
      </trkpt>
      <trkpt lat="48.04305" lon="5.42475">
        <ele>376</ele>
        <time>2023-07-14T05:27:30Z</time>
      </trkpt>
      <trkpt lat="48.04333" lon="5.42457">
        <ele>375</ele>
        <time>2023-07-14T05:27:56Z</time>
      </trkpt>
      <trkpt lat="48.04355" lon="5.42449">
        <ele>376</ele>
        <time>2023-07-14T05:28:17Z</time>
      </trkpt>
      <trkpt lat="48.04377" lon="5.42451">
        <ele>376</ele>
        <time>2023-07-14T05:28:39Z</time>
      </trkpt>
      <trkpt lat="48.04381" lon="5.42448">
        <ele>374</ele>
        <time>2023-07-14T05:28:53Z</time>
      </trkpt>
      <trkpt lat="48.0438" lon="5.42449">
        <ele>375</ele>
        <time>2023-07-14T05:29:11Z</time>
      </trkpt>
      <trkpt lat="48.04382" lon="5.4245">
        <ele>376</ele>
        <time>2023-07-14T05:29:13Z</time>
      </trkpt>
      <trkpt lat="48.04389" lon="5.42454">
        <ele>376</ele>
        <time>2023-07-14T05:29:18Z</time>
      </trkpt>
      <trkpt lat="48.04405" lon="5.42453">
        <ele>376</ele>
        <time>2023-07-14T05:29:37Z</time>
      </trkpt>
      <trkpt lat="48.04403" lon="5.42445">
        <ele>376</ele>
        <time>2023-07-14T05:29:43Z</time>
      </trkpt>
      <trkpt lat="48.04401" lon="5.42435">
        <ele>374</ele>
        <time>2023-07-14T05:29:58Z</time>
      </trkpt>
      <trkpt lat="48.04405" lon="5.42442">
        <ele>375</ele>
        <time>2023-07-14T05:30:03Z</time>
      </trkpt>
      <trkpt lat="48.04412" lon="5.42454">
        <ele>376</ele>
        <time>2023-07-14T05:30:20Z</time>
      </trkpt>
      <trkpt lat="48.04413" lon="5.42455">
        <ele>376</ele>
        <time>2023-07-14T05:31:02Z</time>
      </trkpt>
      <trkpt lat="48.04413" lon="5.42455">
        <ele>376</ele>
        <time>2023-07-14T05:31:39Z</time>
      </trkpt>
      <trkpt lat="48.04417" lon="5.42456">
        <ele>376</ele>
        <time>2023-07-14T05:32:13Z</time>
      </trkpt>
      <trkpt lat="48.04425" lon="5.42452">
        <ele>376</ele>
        <time>2023-07-14T05:32:21Z</time>
      </trkpt>
      <trkpt lat="48.04443" lon="5.42443">
        <ele>377</ele>
        <time>2023-07-14T05:32:38Z</time>
      </trkpt>
      <trkpt lat="48.04472" lon="5.42423">
        <ele>376</ele>
        <time>2023-07-14T05:33:04Z</time>
      </trkpt>
      <trkpt lat="48.04498" lon="5.42405">
        <ele>376</ele>
        <time>2023-07-14T05:33:29Z</time>
      </trkpt>
      <trkpt lat="48.04525" lon="5.42384">
        <ele>375</ele>
        <time>2023-07-14T05:33:55Z</time>
      </trkpt>
      <trkpt lat="48.04547" lon="5.42375">
        <ele>376</ele>
        <time>2023-07-14T05:34:15Z</time>
      </trkpt>
      <trkpt lat="48.04575" lon="5.42359">
        <ele>375</ele>
        <time>2023-07-14T05:34:40Z</time>
      </trkpt>
      <trkpt lat="48.04601" lon="5.42351">
        <ele>375</ele>
        <time>2023-07-14T05:35:03Z</time>
      </trkpt>
      <trkpt lat="48.04628" lon="5.42337">
        <ele>375</ele>
        <time>2023-07-14T05:35:28Z</time>
      </trkpt>
      <trkpt lat="48.04651" lon="5.42324">
        <ele>374</ele>
        <time>2023-07-14T05:35:50Z</time>
      </trkpt>
      <trkpt lat="48.04676" lon="5.42311">
        <ele>374</ele>
        <time>2023-07-14T05:36:13Z</time>
      </trkpt>
      <trkpt lat="48.04704" lon="5.42292">
        <ele>373</ele>
        <time>2023-07-14T05:36:39Z</time>
      </trkpt>
      <trkpt lat="48.04726" lon="5.4227">
        <ele>373</ele>
        <time>2023-07-14T05:37:02Z</time>
      </trkpt>
      <trkpt lat="48.04748" lon="5.42247">
        <ele>373</ele>
        <time>2023-07-14T05:37:26Z</time>
      </trkpt>
      <trkpt lat="48.04772" lon="5.42223">
        <ele>373</ele>
        <time>2023-07-14T05:37:51Z</time>
      </trkpt>
      <trkpt lat="48.04788" lon="5.42208">
        <ele>373</ele>
        <time>2023-07-14T05:38:12Z</time>
      </trkpt>
      <trkpt lat="48.04811" lon="5.42184">
        <ele>372</ele>
        <time>2023-07-14T05:38:37Z</time>
      </trkpt>
      <trkpt lat="48.04834" lon="5.42162">
        <ele>371</ele>
        <time>2023-07-14T05:39:00Z</time>
      </trkpt>
      <trkpt lat="48.04856" lon="5.42142">
        <ele>371</ele>
        <time>2023-07-14T05:39:22Z</time>
      </trkpt>
      <trkpt lat="48.04877" lon="5.42126">
        <ele>370</ele>
        <time>2023-07-14T05:39:43Z</time>
      </trkpt>
      <trkpt lat="48.04897" lon="5.42108">
        <ele>371</ele>
        <time>2023-07-14T05:40:04Z</time>
      </trkpt>
      <trkpt lat="48.04919" lon="5.42084">
        <ele>371</ele>
        <time>2023-07-14T05:40:27Z</time>
      </trkpt>
      <trkpt lat="48.0494" lon="5.4206">
        <ele>371</ele>
        <time>2023-07-14T05:40:49Z</time>
      </trkpt>
      <trkpt lat="48.04956" lon="5.42046">
        <ele>371</ele>
        <time>2023-07-14T05:41:08Z</time>
      </trkpt>
      <trkpt lat="48.04958" lon="5.42044">
        <ele>370</ele>
        <time>2023-07-14T05:41:44Z</time>
      </trkpt>
      <trkpt lat="48.04962" lon="5.42038">
        <ele>371</ele>
        <time>2023-07-14T05:42:14Z</time>
      </trkpt>
      <trkpt lat="48.04962" lon="5.42035">
        <ele>371</ele>
        <time>2023-07-14T05:42:32Z</time>
      </trkpt>
      <trkpt lat="48.04972" lon="5.4202">
        <ele>371</ele>
        <time>2023-07-14T05:42:49Z</time>
      </trkpt>
      <trkpt lat="48.04995" lon="5.41997">
        <ele>370</ele>
        <time>2023-07-14T05:43:10Z</time>
      </trkpt>
      <trkpt lat="48.04999" lon="5.41994">
        <ele>370</ele>
        <time>2023-07-14T05:43:26Z</time>
      </trkpt>
      <trkpt lat="48.05011" lon="5.41977">
        <ele>371</ele>
        <time>2023-07-14T05:43:41Z</time>
      </trkpt>
      <trkpt lat="48.05031" lon="5.41953">
        <ele>370</ele>
        <time>2023-07-14T05:44:01Z</time>
      </trkpt>
      <trkpt lat="48.05056" lon="5.41931">
        <ele>369</ele>
        <time>2023-07-14T05:44:23Z</time>
      </trkpt>
      <trkpt lat="48.05079" lon="5.41913">
        <ele>369</ele>
        <time>2023-07-14T05:44:43Z</time>
      </trkpt>
      <trkpt lat="48.05105" lon="5.4189">
        <ele>369</ele>
        <time>2023-07-14T05:45:07Z</time>
      </trkpt>
      <trkpt lat="48.0513" lon="5.41869">
        <ele>370</ele>
        <time>2023-07-14T05:45:29Z</time>
      </trkpt>
      <trkpt lat="48.05157" lon="5.41836">
        <ele>369</ele>
        <time>2023-07-14T05:45:57Z</time>
      </trkpt>
      <trkpt lat="48.05182" lon="5.41804">
        <ele>369</ele>
        <time>2023-07-14T05:46:22Z</time>
      </trkpt>
      <trkpt lat="48.05209" lon="5.41781">
        <ele>369</ele>
        <time>2023-07-14T05:46:46Z</time>
      </trkpt>
      <trkpt lat="48.05234" lon="5.41768">
        <ele>369</ele>
        <time>2023-07-14T05:47:08Z</time>
      </trkpt>
      <trkpt lat="48.0526" lon="5.4175">
        <ele>369</ele>
        <time>2023-07-14T05:47:31Z</time>
      </trkpt>
      <trkpt lat="48.05291" lon="5.41725">
        <ele>370</ele>
        <time>2023-07-14T05:47:55Z</time>
      </trkpt>
      <trkpt lat="48.05317" lon="5.41703">
        <ele>370</ele>
        <time>2023-07-14T05:48:20Z</time>
      </trkpt>
      <trkpt lat="48.05342" lon="5.41681">
        <ele>371</ele>
        <time>2023-07-14T05:48:41Z</time>
      </trkpt>
      <trkpt lat="48.05366" lon="5.41657">
        <ele>373</ele>
        <time>2023-07-14T05:49:04Z</time>
      </trkpt>
      <trkpt lat="48.05385" lon="5.41631">
        <ele>372</ele>
        <time>2023-07-14T05:49:25Z</time>
      </trkpt>
      <trkpt lat="48.05391" lon="5.41598">
        <ele>371</ele>
        <time>2023-07-14T05:49:44Z</time>
      </trkpt>
      <trkpt lat="48.05403" lon="5.41556">
        <ele>371</ele>
        <time>2023-07-14T05:50:09Z</time>
      </trkpt>
      <trkpt lat="48.05413" lon="5.41511">
        <ele>370</ele>
        <time>2023-07-14T05:50:33Z</time>
      </trkpt>
      <trkpt lat="48.05422" lon="5.41471">
        <ele>369</ele>
        <time>2023-07-14T05:50:55Z</time>
      </trkpt>
      <trkpt lat="48.05426" lon="5.41465">
        <ele>370</ele>
        <time>2023-07-14T05:51:13Z</time>
      </trkpt>
      <trkpt lat="48.0543" lon="5.41458">
        <ele>369</ele>
        <time>2023-07-14T05:51:30Z</time>
      </trkpt>
      <trkpt lat="48.05433" lon="5.4146">
        <ele>370</ele>
        <time>2023-07-14T05:51:50Z</time>
      </trkpt>
      <trkpt lat="48.05435" lon="5.41446">
        <ele>370</ele>
        <time>2023-07-14T05:52:08Z</time>
      </trkpt>
      <trkpt lat="48.05453" lon="5.41424">
        <ele>369</ele>
        <time>2023-07-14T05:52:27Z</time>
      </trkpt>
      <trkpt lat="48.05474" lon="5.41391">
        <ele>369</ele>
        <time>2023-07-14T05:52:52Z</time>
      </trkpt>
      <trkpt lat="48.05492" lon="5.4137">
        <ele>369</ele>
        <time>2023-07-14T05:53:12Z</time>
      </trkpt>
      <trkpt lat="48.05511" lon="5.41364">
        <ele>369</ele>
        <time>2023-07-14T05:53:28Z</time>
      </trkpt>
      <trkpt lat="48.05527" lon="5.41382">
        <ele>371</ele>
        <time>2023-07-14T05:53:46Z</time>
      </trkpt>
      <trkpt lat="48.05546" lon="5.41405">
        <ele>374</ele>
        <time>2023-07-14T05:54:07Z</time>
      </trkpt>
      <trkpt lat="48.05561" lon="5.4143">
        <ele>375</ele>
        <time>2023-07-14T05:54:28Z</time>
      </trkpt>
      <trkpt lat="48.05579" lon="5.41457">
        <ele>377</ele>
        <time>2023-07-14T05:54:50Z</time>
      </trkpt>
      <trkpt lat="48.05599" lon="5.41485">
        <ele>379</ele>
        <time>2023-07-14T05:55:13Z</time>
      </trkpt>
      <trkpt lat="48.05604" lon="5.41489">
        <ele>380</ele>
        <time>2023-07-14T05:55:28Z</time>
      </trkpt>
      <trkpt lat="48.05606" lon="5.41497">
        <ele>381</ele>
        <time>2023-07-14T05:55:42Z</time>
      </trkpt>
      <trkpt lat="48.05609" lon="5.41502">
        <ele>381</ele>
        <time>2023-07-14T05:56:14Z</time>
      </trkpt>
      <trkpt lat="48.05612" lon="5.41509">
        <ele>382</ele>
        <time>2023-07-14T05:56:32Z</time>
      </trkpt>
      <trkpt lat="48.05614" lon="5.41508">
        <ele>382</ele>
        <time>2023-07-14T05:57:03Z</time>
      </trkpt>
      <trkpt lat="48.05617" lon="5.41523">
        <ele>382</ele>
        <time>2023-07-14T05:57:24Z</time>
      </trkpt>
      <trkpt lat="48.05633" lon="5.41555">
        <ele>385</ele>
        <time>2023-07-14T05:57:46Z</time>
      </trkpt>
      <trkpt lat="48.05653" lon="5.41579">
        <ele>388</ele>
        <time>2023-07-14T05:58:07Z</time>
      </trkpt>
      <trkpt lat="48.05673" lon="5.41592">
        <ele>391</ele>
        <time>2023-07-14T05:58:26Z</time>
      </trkpt>
      <trkpt lat="48.05691" lon="5.41604">
        <ele>394</ele>
        <time>2023-07-14T05:58:44Z</time>
      </trkpt>
      <trkpt lat="48.05705" lon="5.41616">
        <ele>396</ele>
        <time>2023-07-14T05:59:04Z</time>
      </trkpt>
      <trkpt lat="48.05706" lon="5.41617">
        <ele>396</ele>
        <time>2023-07-14T05:59:35Z</time>
      </trkpt>
      <trkpt lat="48.0571" lon="5.41627">
        <ele>396</ele>
        <time>2023-07-14T06:00:01Z</time>
      </trkpt>
      <trkpt lat="48.05721" lon="5.41655">
        <ele>400</ele>
        <time>2023-07-14T06:00:20Z</time>
      </trkpt>
      <trkpt lat="48.0573" lon="5.41688">
        <ele>402</ele>
        <time>2023-07-14T06:00:41Z</time>
      </trkpt>
      <trkpt lat="48.0573" lon="5.41689">
        <ele>403</ele>
        <time>2023-07-14T06:00:58Z</time>
      </trkpt>
      <trkpt lat="48.05733" lon="5.41689">
        <ele>403</ele>
        <time>2023-07-14T06:01:30Z</time>
      </trkpt>
      <trkpt lat="48.05733" lon="5.41688">
        <ele>402</ele>
        <time>2023-07-14T06:02:18Z</time>
      </trkpt>
      <trkpt lat="48.05734" lon="5.41703">
        <ele>402</ele>
        <time>2023-07-14T06:02:51Z</time>
      </trkpt>
      <trkpt lat="48.05739" lon="5.41728">
        <ele>405</ele>
        <time>2023-07-14T06:03:07Z</time>
      </trkpt>
      <trkpt lat="48.05744" lon="5.4176">
        <ele>408</ele>
        <time>2023-07-14T06:03:27Z</time>
      </trkpt>
      <trkpt lat="48.05748" lon="5.41794">
        <ele>410</ele>
        <time>2023-07-14T06:03:48Z</time>
      </trkpt>
      <trkpt lat="48.0575" lon="5.4182">
        <ele>413</ele>
        <time>2023-07-14T06:04:05Z</time>
      </trkpt>
      <trkpt lat="48.05751" lon="5.41829">
        <ele>413</ele>
        <time>2023-07-14T06:04:20Z</time>
      </trkpt>
      <trkpt lat="48.05753" lon="5.41832">
        <ele>414</ele>
        <time>2023-07-14T06:04:33Z</time>
      </trkpt>
      <trkpt lat="48.05755" lon="5.41867">
        <ele>416</ele>
        <time>2023-07-14T06:04:54Z</time>
      </trkpt>
      <trkpt lat="48.05757" lon="5.419">
        <ele>418</ele>
        <time>2023-07-14T06:05:14Z</time>
      </trkpt>
      <trkpt lat="48.05755" lon="5.41904">
        <ele>419</ele>
        <time>2023-07-14T06:05:18Z</time>
      </trkpt>
      <trkpt lat="48.05757" lon="5.41923">
        <ele>421</ele>
        <time>2023-07-14T06:05:30Z</time>
      </trkpt>
      <trkpt lat="48.05762" lon="5.41961">
        <ele>423</ele>
        <time>2023-07-14T06:05:53Z</time>
      </trkpt>
      <trkpt lat="48.05766" lon="5.41981">
        <ele>423</ele>
        <time>2023-07-14T06:06:05Z</time>
      </trkpt>
      <trkpt lat="48.05767" lon="5.41987">
        <ele>424</ele>
        <time>2023-07-14T06:06:09Z</time>
      </trkpt>
      <trkpt lat="48.05777" lon="5.42019">
        <ele>427</ele>
        <time>2023-07-14T06:06:30Z</time>
      </trkpt>
      <trkpt lat="48.05794" lon="5.4203">
        <ele>430</ele>
        <time>2023-07-14T06:06:48Z</time>
      </trkpt>
      <trkpt lat="48.05814" lon="5.4202">
        <ele>433</ele>
        <time>2023-07-14T06:07:06Z</time>
      </trkpt>
      <trkpt lat="48.05816" lon="5.42018">
        <ele>433</ele>
        <time>2023-07-14T06:07:27Z</time>
      </trkpt>
      <trkpt lat="48.05813" lon="5.42021">
        <ele>432</ele>
        <time>2023-07-14T06:07:58Z</time>
      </trkpt>
      <trkpt lat="48.05815" lon="5.42019">
        <ele>433</ele>
        <time>2023-07-14T06:08:25Z</time>
      </trkpt>
      <trkpt lat="48.05814" lon="5.42022">
        <ele>432</ele>
        <time>2023-07-14T06:08:51Z</time>
      </trkpt>
      <trkpt lat="48.05813" lon="5.4202">
        <ele>432</ele>
        <time>2023-07-14T06:09:25Z</time>
      </trkpt>
      <trkpt lat="48.05815" lon="5.4202">
        <ele>432</ele>
        <time>2023-07-14T06:09:55Z</time>
      </trkpt>
      <trkpt lat="48.05818" lon="5.42017">
        <ele>432</ele>
        <time>2023-07-14T06:10:18Z</time>
      </trkpt>
      <trkpt lat="48.05818" lon="5.42019">
        <ele>432</ele>
        <time>2023-07-14T06:10:55Z</time>
      </trkpt>
      <trkpt lat="48.05819" lon="5.42019">
        <ele>433</ele>
        <time>2023-07-14T06:11:34Z</time>
      </trkpt>
      <trkpt lat="48.05819" lon="5.42016">
        <ele>432</ele>
        <time>2023-07-14T06:12:11Z</time>
      </trkpt>
      <trkpt lat="48.05823" lon="5.42019">
        <ele>432</ele>
        <time>2023-07-14T06:12:44Z</time>
      </trkpt>
      <trkpt lat="48.05823" lon="5.42018">
        <ele>433</ele>
        <time>2023-07-14T06:12:54Z</time>
      </trkpt>
      <trkpt lat="48.05829" lon="5.41984">
        <ele>435</ele>
        <time>2023-07-14T06:13:16Z</time>
      </trkpt>
      <trkpt lat="48.05836" lon="5.41948">
        <ele>436</ele>
        <time>2023-07-14T06:13:39Z</time>
      </trkpt>
      <trkpt lat="48.05843" lon="5.41924">
        <ele>436</ele>
        <time>2023-07-14T06:13:57Z</time>
      </trkpt>
      <trkpt lat="48.05868" lon="5.41904">
        <ele>437</ele>
        <time>2023-07-14T06:14:21Z</time>
      </trkpt>
      <trkpt lat="48.05894" lon="5.41909">
        <ele>437</ele>
        <time>2023-07-14T06:14:44Z</time>
      </trkpt>
      <trkpt lat="48.05921" lon="5.41922">
        <ele>437</ele>
        <time>2023-07-14T06:15:08Z</time>
      </trkpt>
      <trkpt lat="48.0594" lon="5.41941">
        <ele>438</ele>
        <time>2023-07-14T06:15:31Z</time>
      </trkpt>
      <trkpt lat="48.05942" lon="5.41938">
        <ele>437</ele>
        <time>2023-07-14T06:15:52Z</time>
      </trkpt>
      <trkpt lat="48.05942" lon="5.41938">
        <ele>437</ele>
        <time>2023-07-14T06:16:26Z</time>
      </trkpt>
      <trkpt lat="48.05942" lon="5.4194">
        <ele>437</ele>
        <time>2023-07-14T06:16:35Z</time>
      </trkpt>
      <trkpt lat="48.05944" lon="5.41943">
        <ele>438</ele>
        <time>2023-07-14T06:16:50Z</time>
      </trkpt>
      <trkpt lat="48.05944" lon="5.41943">
        <ele>438</ele>
        <time>2023-07-14T06:17:01Z</time>
      </trkpt>
      <trkpt lat="48.05958" lon="5.41971">
        <ele>437</ele>
        <time>2023-07-14T06:17:21Z</time>
      </trkpt>
      <trkpt lat="48.05975" lon="5.42002">
        <ele>438</ele>
        <time>2023-07-14T06:17:45Z</time>
      </trkpt>
      <trkpt lat="48.05994" lon="5.42035">
        <ele>438</ele>
        <time>2023-07-14T06:18:09Z</time>
      </trkpt>
      <trkpt lat="48.06008" lon="5.42062">
        <ele>438</ele>
        <time>2023-07-14T06:18:27Z</time>
      </trkpt>
      <trkpt lat="48.06024" lon="5.4209">
        <ele>438</ele>
        <time>2023-07-14T06:18:50Z</time>
      </trkpt>
      <trkpt lat="48.06021" lon="5.42083">
        <ele>438</ele>
        <time>2023-07-14T06:19:04Z</time>
      </trkpt>
      <trkpt lat="48.06022" lon="5.42084">
        <ele>438</ele>
        <time>2023-07-14T06:19:37Z</time>
      </trkpt>
      <trkpt lat="48.06021" lon="5.42086">
        <ele>438</ele>
        <time>2023-07-14T06:19:41Z</time>
      </trkpt>
      <trkpt lat="48.06021" lon="5.42094">
        <ele>438</ele>
        <time>2023-07-14T06:19:45Z</time>
      </trkpt>
      <trkpt lat="48.06026" lon="5.42098">
        <ele>438</ele>
        <time>2023-07-14T06:20:02Z</time>
      </trkpt>
      <trkpt lat="48.06028" lon="5.42103">
        <ele>438</ele>
        <time>2023-07-14T06:20:24Z</time>
      </trkpt>
      <trkpt lat="48.06037" lon="5.42131">
        <ele>437</ele>
        <time>2023-07-14T06:20:41Z</time>
      </trkpt>
      <trkpt lat="48.06055" lon="5.42159">
        <ele>437</ele>
        <time>2023-07-14T06:21:02Z</time>
      </trkpt>
      <trkpt lat="48.06063" lon="5.42169">
        <ele>436</ele>
        <time>2023-07-14T06:21:14Z</time>
      </trkpt>
      <trkpt lat="48.06088" lon="5.42202">
        <ele>436</ele>
        <time>2023-07-14T06:21:42Z</time>
      </trkpt>
      <trkpt lat="48.06084" lon="5.422">
        <ele>436</ele>
        <time>2023-07-14T06:21:52Z</time>
      </trkpt>
      <trkpt lat="48.06091" lon="5.42208">
        <ele>436</ele>
        <time>2023-07-14T06:22:06Z</time>
      </trkpt>
      <trkpt lat="48.0612" lon="5.4224">
        <ele>436</ele>
        <time>2023-07-14T06:22:34Z</time>
      </trkpt>
      <trkpt lat="48.06146" lon="5.42264">
        <ele>437</ele>
        <time>2023-07-14T06:23:00Z</time>
      </trkpt>
      <trkpt lat="48.06168" lon="5.42298">
        <ele>437</ele>
        <time>2023-07-14T06:23:26Z</time>
      </trkpt>
      <trkpt lat="48.06192" lon="5.42332">
        <ele>438</ele>
        <time>2023-07-14T06:23:53Z</time>
      </trkpt>
      <trkpt lat="48.06209" lon="5.42357">
        <ele>439</ele>
        <time>2023-07-14T06:24:14Z</time>
      </trkpt>
      <trkpt lat="48.06221" lon="5.42376">
        <ele>440</ele>
        <time>2023-07-14T06:24:34Z</time>
      </trkpt>
      <trkpt lat="48.06242" lon="5.42408">
        <ele>441</ele>
        <time>2023-07-14T06:24:57Z</time>
      </trkpt>
      <trkpt lat="48.06262" lon="5.42438">
        <ele>442</ele>
        <time>2023-07-14T06:25:22Z</time>
      </trkpt>
      <trkpt lat="48.06283" lon="5.42467">
        <ele>442</ele>
        <time>2023-07-14T06:25:47Z</time>
      </trkpt>
      <trkpt lat="48.06302" lon="5.42494">
        <ele>443</ele>
        <time>2023-07-14T06:26:09Z</time>
      </trkpt>
      <trkpt lat="48.06309" lon="5.42506">
        <ele>442</ele>
        <time>2023-07-14T06:26:18Z</time>
      </trkpt>
      <trkpt lat="48.06333" lon="5.42539">
        <ele>442</ele>
        <time>2023-07-14T06:26:45Z</time>
      </trkpt>
      <trkpt lat="48.06357" lon="5.42572">
        <ele>442</ele>
        <time>2023-07-14T06:27:12Z</time>
      </trkpt>
      <trkpt lat="48.0638" lon="5.42602">
        <ele>443</ele>
        <time>2023-07-14T06:27:38Z</time>
      </trkpt>
      <trkpt lat="48.06399" lon="5.42633">
        <ele>442</ele>
        <time>2023-07-14T06:28:01Z</time>
      </trkpt>
      <trkpt lat="48.06405" lon="5.42644">
        <ele>441</ele>
        <time>2023-07-14T06:28:12Z</time>
      </trkpt>
      <trkpt lat="48.06422" lon="5.42667">
        <ele>441</ele>
        <time>2023-07-14T06:28:32Z</time>
      </trkpt>
      <trkpt lat="48.06443" lon="5.42693">
        <ele>440</ele>
        <time>2023-07-14T06:28:54Z</time>
      </trkpt>
      <trkpt lat="48.06455" lon="5.42716">
        <ele>439</ele>
        <time>2023-07-14T06:29:14Z</time>
      </trkpt>
      <trkpt lat="48.06455" lon="5.42716">
        <ele>439</ele>
        <time>2023-07-14T06:29:21Z</time>
      </trkpt>
      <trkpt lat="48.06463" lon="5.42715">
        <ele>439</ele>
        <time>2023-07-14T06:29:28Z</time>
      </trkpt>
      <trkpt lat="48.0648" lon="5.42734">
        <ele>438</ele>
        <time>2023-07-14T06:29:52Z</time>
      </trkpt>
      <trkpt lat="48.06491" lon="5.42744">
        <ele>437</ele>
        <time>2023-07-14T06:30:21Z</time>
      </trkpt>
      <trkpt lat="48.06513" lon="5.4276">
        <ele>437</ele>
        <time>2023-07-14T06:30:44Z</time>
      </trkpt>
      <trkpt lat="48.06522" lon="5.42766">
        <ele>436</ele>
        <time>2023-07-14T06:31:06Z</time>
      </trkpt>
      <trkpt lat="48.06545" lon="5.42785">
        <ele>436</ele>
        <time>2023-07-14T06:31:27Z</time>
      </trkpt>
      <trkpt lat="48.06557" lon="5.428">
        <ele>436</ele>
        <time>2023-07-14T06:31:46Z</time>
      </trkpt>
      <trkpt lat="48.06574" lon="5.42824">
        <ele>436</ele>
        <time>2023-07-14T06:32:09Z</time>
      </trkpt>
      <trkpt lat="48.06588" lon="5.42851">
        <ele>435</ele>
        <time>2023-07-14T06:32:29Z</time>
      </trkpt>
      <trkpt lat="48.06596" lon="5.42864">
        <ele>435</ele>
        <time>2023-07-14T06:32:48Z</time>
      </trkpt>
      <trkpt lat="48.06601" lon="5.42871">
        <ele>435</ele>
        <time>2023-07-14T06:33:08Z</time>
      </trkpt>
      <trkpt lat="48.06612" lon="5.42895">
        <ele>434</ele>
        <time>2023-07-14T06:33:25Z</time>
      </trkpt>
      <trkpt lat="48.06628" lon="5.42923">
        <ele>434</ele>
        <time>2023-07-14T06:33:47Z</time>
      </trkpt>
      <trkpt lat="48.06646" lon="5.42958">
        <ele>434</ele>
        <time>2023-07-14T06:34:11Z</time>
      </trkpt>
      <trkpt lat="48.06659" lon="5.42987">
        <ele>432</ele>
        <time>2023-07-14T06:34:32Z</time>
      </trkpt>
      <trkpt lat="48.06658" lon="5.42988">
        <ele>432</ele>
        <time>2023-07-14T06:34:54Z</time>
      </trkpt>
      <trkpt lat="48.06661" lon="5.42988">
        <ele>433</ele>
        <time>2023-07-14T06:35:30Z</time>
      </trkpt>
      <trkpt lat="48.06665" lon="5.42993">
        <ele>432</ele>
        <time>2023-07-14T06:36:03Z</time>
      </trkpt>
      <trkpt lat="48.06683" lon="5.43023">
        <ele>432</ele>
        <time>2023-07-14T06:36:27Z</time>
      </trkpt>
      <trkpt lat="48.06707" lon="5.43057">
        <ele>432</ele>
        <time>2023-07-14T06:36:55Z</time>
      </trkpt>
      <trkpt lat="48.06717" lon="5.43086">
        <ele>431</ele>
        <time>2023-07-14T06:37:16Z</time>
      </trkpt>
      <trkpt lat="48.06716" lon="5.43088">
        <ele>431</ele>
        <time>2023-07-14T06:37:21Z</time>
      </trkpt>
      <trkpt lat="48.06702" lon="5.43109">
        <ele>429</ele>
        <time>2023-07-14T06:37:39Z</time>
      </trkpt>
      <trkpt lat="48.067" lon="5.43112">
        <ele>430</ele>
        <time>2023-07-14T06:37:41Z</time>
      </trkpt>
      <trkpt lat="48.06691" lon="5.43151">
        <ele>430</ele>
        <time>2023-07-14T06:38:04Z</time>
      </trkpt>
      <trkpt lat="48.06697" lon="5.43195">
        <ele>428</ele>
        <time>2023-07-14T06:38:28Z</time>
      </trkpt>
      <trkpt lat="48.06708" lon="5.43229">
        <ele>426</ele>
        <time>2023-07-14T06:38:51Z</time>
      </trkpt>
      <trkpt lat="48.06708" lon="5.43223">
        <ele>427</ele>
        <time>2023-07-14T06:38:55Z</time>
      </trkpt>
      <trkpt lat="48.06709" lon="5.43223">
        <ele>427</ele>
        <time>2023-07-14T06:39:25Z</time>
      </trkpt>
      <trkpt lat="48.06725" lon="5.4326">
        <ele>425</ele>
        <time>2023-07-14T06:39:48Z</time>
      </trkpt>
      <trkpt lat="48.06747" lon="5.43282">
        <ele>423</ele>
        <time>2023-07-14T06:40:11Z</time>
      </trkpt>
      <trkpt lat="48.06747" lon="5.43276">
        <ele>424</ele>
        <time>2023-07-14T06:40:22Z</time>
      </trkpt>
      <trkpt lat="48.06747" lon="5.43278">
        <ele>424</ele>
        <time>2023-07-14T06:40:23Z</time>
      </trkpt>
      <trkpt lat="48.0677" lon="5.43301">
        <ele>422</ele>
        <time>2023-07-14T06:40:47Z</time>
      </trkpt>
      <trkpt lat="48.06795" lon="5.43315">
        <ele>420</ele>
        <time>2023-07-14T06:41:09Z</time>
      </trkpt>
      <trkpt lat="48.06815" lon="5.43326">
        <ele>418</ele>
        <time>2023-07-14T06:41:27Z</time>
      </trkpt>
      <trkpt lat="48.06825" lon="5.43331">
        <ele>418</ele>
        <time>2023-07-14T06:41:39Z</time>
      </trkpt>
      <trkpt lat="48.06851" lon="5.43345">
        <ele>416</ele>
        <time>2023-07-14T06:42:01Z</time>
      </trkpt>
      <trkpt lat="48.06873" lon="5.43354">
        <ele>415</ele>
        <time>2023-07-14T06:42:22Z</time>
      </trkpt>
      <trkpt lat="48.06883" lon="5.4336">
        <ele>414</ele>
        <time>2023-07-14T06:42:36Z</time>
      </trkpt>
      <trkpt lat="48.06908" lon="5.4338">
        <ele>413</ele>
        <time>2023-07-14T06:43:01Z</time>
      </trkpt>
      <trkpt lat="48.06934" lon="5.43399">
        <ele>411</ele>
        <time>2023-07-14T06:43:25Z</time>
      </trkpt>
      <trkpt lat="48.06961" lon="5.43417">
        <ele>409</ele>
        <time>2023-07-14T06:43:49Z</time>
      </trkpt>
      <trkpt lat="48.06984" lon="5.43431">
        <ele>407</ele>
        <time>2023-07-14T06:44:11Z</time>
      </trkpt>
      <trkpt lat="48.07013" lon="5.43443">
        <ele>406</ele>
        <time>2023-07-14T06:44:36Z</time>
      </trkpt>
      <trkpt lat="48.07041" lon="5.43457">
        <ele>403</ele>
        <time>2023-07-14T06:45:00Z</time>
      </trkpt>
      <trkpt lat="48.07064" lon="5.43466">
        <ele>402</ele>
        <time>2023-07-14T06:45:21Z</time>
      </trkpt>
      <trkpt lat="48.07091" lon="5.43474">
        <ele>401</ele>
        <time>2023-07-14T06:45:44Z</time>
      </trkpt>
      <trkpt lat="48.07116" lon="5.43479">
        <ele>400</ele>
        <time>2023-07-14T06:46:04Z</time>
      </trkpt>
      <trkpt lat="48.07138" lon="5.43478">
        <ele>398</ele>
        <time>2023-07-14T06:46:24Z</time>
      </trkpt>
      <trkpt lat="48.0716" lon="5.43484">
        <ele>397</ele>
        <time>2023-07-14T06:46:44Z</time>
      </trkpt>
      <trkpt lat="48.07186" lon="5.43485">
        <ele>395</ele>
        <time>2023-07-14T06:47:06Z</time>
      </trkpt>
      <trkpt lat="48.07207" lon="5.43482">
        <ele>395</ele>
        <time>2023-07-14T06:47:25Z</time>
      </trkpt>
      <trkpt lat="48.07228" lon="5.43477">
        <ele>394</ele>
        <time>2023-07-14T06:47:45Z</time>
      </trkpt>
      <trkpt lat="48.07248" lon="5.43467">
        <ele>394</ele>
        <time>2023-07-14T06:48:06Z</time>
      </trkpt>
      <trkpt lat="48.07246" lon="5.43469">
        <ele>394</ele>
        <time>2023-07-14T06:48:16Z</time>
      </trkpt>
      <trkpt lat="48.07224" lon="5.43481">
        <ele>394</ele>
        <time>2023-07-14T06:48:35Z</time>
      </trkpt>
      <trkpt lat="48.07218" lon="5.43482">
        <ele>394</ele>
        <time>2023-07-14T06:48:44Z</time>
      </trkpt>
      <trkpt lat="48.07195" lon="5.43487">
        <ele>394</ele>
        <time>2023-07-14T06:49:03Z</time>
      </trkpt>
      <trkpt lat="48.07181" lon="5.435">
        <ele>394</ele>
        <time>2023-07-14T06:49:17Z</time>
      </trkpt>
      <trkpt lat="48.07162" lon="5.43515">
        <ele>393</ele>
        <time>2023-07-14T06:49:37Z</time>
      </trkpt>
      <trkpt lat="48.07138" lon="5.4353">
        <ele>392</ele>
        <time>2023-07-14T06:49:58Z</time>
      </trkpt>
      <trkpt lat="48.07121" lon="5.43545">
        <ele>393</ele>
        <time>2023-07-14T06:50:16Z</time>
      </trkpt>
      <trkpt lat="48.0712" lon="5.43579">
        <ele>392</ele>
        <time>2023-07-14T06:50:34Z</time>
      </trkpt>
      <trkpt lat="48.07128" lon="5.43605">
        <ele>391</ele>
        <time>2023-07-14T06:50:50Z</time>
      </trkpt>
      <trkpt lat="48.07142" lon="5.43637">
        <ele>390</ele>
        <time>2023-07-14T06:51:13Z</time>
      </trkpt>
      <trkpt lat="48.07145" lon="5.43636">
        <ele>390</ele>
        <time>2023-07-14T06:51:39Z</time>
      </trkpt>
      <trkpt lat="48.07144" lon="5.43635">
        <ele>390</ele>
        <time>2023-07-14T06:51:59Z</time>
      </trkpt>
      <trkpt lat="48.07145" lon="5.43634">
        <ele>390</ele>
        <time>2023-07-14T06:52:18Z</time>
      </trkpt>
      <trkpt lat="48.07143" lon="5.43633">
        <ele>390</ele>
        <time>2023-07-14T06:52:37Z</time>
      </trkpt>
      <trkpt lat="48.07143" lon="5.4363">
        <ele>390</ele>
        <time>2023-07-14T06:53:05Z</time>
      </trkpt>
      <trkpt lat="48.07142" lon="5.43633">
        <ele>390</ele>
        <time>2023-07-14T06:53:31Z</time>
      </trkpt>
      <trkpt lat="48.07141" lon="5.43632">
        <ele>390</ele>
        <time>2023-07-14T06:53:51Z</time>
      </trkpt>
      <trkpt lat="48.07142" lon="5.43633">
        <ele>391</ele>
        <time>2023-07-14T06:54:17Z</time>
      </trkpt>
      <trkpt lat="48.07142" lon="5.43635">
        <ele>391</ele>
        <time>2023-07-14T06:54:47Z</time>
      </trkpt>
      <trkpt lat="48.07143" lon="5.43635">
        <ele>391</ele>
        <time>2023-07-14T06:55:09Z</time>
      </trkpt>
      <trkpt lat="48.07144" lon="5.43634">
        <ele>391</ele>
        <time>2023-07-14T06:55:33Z</time>
      </trkpt>
      <trkpt lat="48.07141" lon="5.43635">
        <ele>390</ele>
        <time>2023-07-14T06:55:58Z</time>
      </trkpt>
      <trkpt lat="48.07142" lon="5.43633">
        <ele>391</ele>
        <time>2023-07-14T06:56:21Z</time>
      </trkpt>
      <trkpt lat="48.07142" lon="5.43633">
        <ele>391</ele>
        <time>2023-07-14T06:56:51Z</time>
      </trkpt>
      <trkpt lat="48.07144" lon="5.43631">
        <ele>391</ele>
        <time>2023-07-14T06:57:23Z</time>
      </trkpt>
      <trkpt lat="48.07143" lon="5.43632">
        <ele>391</ele>
        <time>2023-07-14T06:57:55Z</time>
      </trkpt>
      <trkpt lat="48.07144" lon="5.43633">
        <ele>391</ele>
        <time>2023-07-14T06:58:17Z</time>
      </trkpt>
      <trkpt lat="48.07142" lon="5.43633">
        <ele>390</ele>
        <time>2023-07-14T06:58:51Z</time>
      </trkpt>
      <trkpt lat="48.07144" lon="5.43643">
        <ele>390</ele>
        <time>2023-07-14T06:59:19Z</time>
      </trkpt>
      <trkpt lat="48.07155" lon="5.43663">
        <ele>390</ele>
        <time>2023-07-14T06:59:34Z</time>
      </trkpt>
      <trkpt lat="48.07172" lon="5.43674">
        <ele>390</ele>
        <time>2023-07-14T06:59:50Z</time>
      </trkpt>
      <trkpt lat="48.07194" lon="5.43668">
        <ele>390</ele>
        <time>2023-07-14T07:00:07Z</time>
      </trkpt>
      <trkpt lat="48.07222" lon="5.43662">
        <ele>390</ele>
        <time>2023-07-14T07:00:29Z</time>
      </trkpt>
      <trkpt lat="48.07248" lon="5.43653">
        <ele>390</ele>
        <time>2023-07-14T07:00:51Z</time>
      </trkpt>
      <trkpt lat="48.07262" lon="5.43636">
        <ele>390</ele>
        <time>2023-07-14T07:01:07Z</time>
      </trkpt>
      <trkpt lat="48.07282" lon="5.43617">
        <ele>390</ele>
        <time>2023-07-14T07:01:26Z</time>
      </trkpt>
      <trkpt lat="48.07291" lon="5.43615">
        <ele>390</ele>
        <time>2023-07-14T07:01:40Z</time>
      </trkpt>
      <trkpt lat="48.07295" lon="5.43619">
        <ele>390</ele>
        <time>2023-07-14T07:01:45Z</time>
      </trkpt>
      <trkpt lat="48.07298" lon="5.43657">
        <ele>390</ele>
        <time>2023-07-14T07:02:06Z</time>
      </trkpt>
      <trkpt lat="48.07308" lon="5.43694">
        <ele>390</ele>
        <time>2023-07-14T07:02:27Z</time>
      </trkpt>
      <trkpt lat="48.07318" lon="5.43719">
        <ele>390</ele>
        <time>2023-07-14T07:02:44Z</time>
      </trkpt>
      <trkpt lat="48.07331" lon="5.43749">
        <ele>390</ele>
        <time>2023-07-14T07:03:05Z</time>
      </trkpt>
      <trkpt lat="48.07337" lon="5.43791">
        <ele>390</ele>
        <time>2023-07-14T07:03:28Z</time>
      </trkpt>
      <trkpt lat="48.07341" lon="5.43828">
        <ele>391</ele>
        <time>2023-07-14T07:03:49Z</time>
      </trkpt>
      <trkpt lat="48.0734" lon="5.43839">
        <ele>390</ele>
        <time>2023-07-14T07:03:55Z</time>
      </trkpt>
      <trkpt lat="48.07322" lon="5.4386">
        <ele>391</ele>
        <time>2023-07-14T07:04:16Z</time>
      </trkpt>
      <trkpt lat="48.073" lon="5.43876">
        <ele>392</ele>
        <time>2023-07-14T07:04:36Z</time>
      </trkpt>
      <trkpt lat="48.0728" lon="5.43893">
        <ele>393</ele>
        <time>2023-07-14T07:04:56Z</time>
      </trkpt>
      <trkpt lat="48.07259" lon="5.43909">
        <ele>395</ele>
        <time>2023-07-14T07:05:17Z</time>
      </trkpt>
      <trkpt lat="48.07236" lon="5.43926">
        <ele>397</ele>
        <time>2023-07-14T07:05:39Z</time>
      </trkpt>
      <trkpt lat="48.07212" lon="5.43944">
        <ele>398</ele>
        <time>2023-07-14T07:06:01Z</time>
      </trkpt>
      <trkpt lat="48.07194" lon="5.43957">
        <ele>399</ele>
        <time>2023-07-14T07:06:20Z</time>
      </trkpt>
      <trkpt lat="48.07173" lon="5.43974">
        <ele>401</ele>
        <time>2023-07-14T07:06:42Z</time>
      </trkpt>
      <trkpt lat="48.07175" lon="5.43973">
        <ele>400</ele>
        <time>2023-07-14T07:06:57Z</time>
      </trkpt>
      <trkpt lat="48.07177" lon="5.43973">
        <ele>400</ele>
        <time>2023-07-14T07:07:31Z</time>
      </trkpt>
      <trkpt lat="48.07174" lon="5.43975">
        <ele>401</ele>
        <time>2023-07-14T07:07:38Z</time>
      </trkpt>
      <trkpt lat="48.07173" lon="5.43976">
        <ele>401</ele>
        <time>2023-07-14T07:07:40Z</time>
      </trkpt>
      <trkpt lat="48.07155" lon="5.43987">
        <ele>401</ele>
        <time>2023-07-14T07:07:57Z</time>
      </trkpt>
      <trkpt lat="48.07134" lon="5.44004">
        <ele>403</ele>
        <time>2023-07-14T07:08:17Z</time>
      </trkpt>
      <trkpt lat="48.07108" lon="5.44024">
        <ele>404</ele>
        <time>2023-07-14T07:08:42Z</time>
      </trkpt>
      <trkpt lat="48.0708" lon="5.44044">
        <ele>405</ele>
        <time>2023-07-14T07:09:10Z</time>
      </trkpt>
      <trkpt lat="48.07059" lon="5.44061">
        <ele>407</ele>
        <time>2023-07-14T07:09:32Z</time>
      </trkpt>
      <trkpt lat="48.07035" lon="5.4408">
        <ele>409</ele>
        <time>2023-07-14T07:09:55Z</time>
      </trkpt>
      <trkpt lat="48.0701" lon="5.44102">
        <ele>410</ele>
        <time>2023-07-14T07:10:22Z</time>
      </trkpt>
      <trkpt lat="48.0699" lon="5.44131">
        <ele>411</ele>
        <time>2023-07-14T07:10:46Z</time>
      </trkpt>
      <trkpt lat="48.06974" lon="5.44159">
        <ele>412</ele>
        <time>2023-07-14T07:11:09Z</time>
      </trkpt>
      <trkpt lat="48.0696" lon="5.44193">
        <ele>413</ele>
        <time>2023-07-14T07:11:33Z</time>
      </trkpt>
      <trkpt lat="48.06943" lon="5.44228">
        <ele>414</ele>
        <time>2023-07-14T07:11:58Z</time>
      </trkpt>
      <trkpt lat="48.06924" lon="5.44257">
        <ele>413</ele>
        <time>2023-07-14T07:12:21Z</time>
      </trkpt>
      <trkpt lat="48.06902" lon="5.44279">
        <ele>413</ele>
        <time>2023-07-14T07:12:45Z</time>
      </trkpt>
      <trkpt lat="48.0688" lon="5.44302">
        <ele>412</ele>
        <time>2023-07-14T07:13:08Z</time>
      </trkpt>
      <trkpt lat="48.06856" lon="5.44325">
        <ele>412</ele>
        <time>2023-07-14T07:13:32Z</time>
      </trkpt>
      <trkpt lat="48.06832" lon="5.44346">
        <ele>412</ele>
        <time>2023-07-14T07:13:57Z</time>
      </trkpt>
      <trkpt lat="48.06809" lon="5.44368">
        <ele>412</ele>
        <time>2023-07-14T07:14:21Z</time>
      </trkpt>
      <trkpt lat="48.06786" lon="5.44386">
        <ele>413</ele>
        <time>2023-07-14T07:14:44Z</time>
      </trkpt>
      <trkpt lat="48.06762" lon="5.44398">
        <ele>413</ele>
        <time>2023-07-14T07:15:06Z</time>
      </trkpt>
      <trkpt lat="48.06733" lon="5.44411">
        <ele>413</ele>
        <time>2023-07-14T07:15:32Z</time>
      </trkpt>
      <trkpt lat="48.06705" lon="5.44417">
        <ele>414</ele>
        <time>2023-07-14T07:15:57Z</time>
      </trkpt>
      <trkpt lat="48.06677" lon="5.4442">
        <ele>413</ele>
        <time>2023-07-14T07:16:21Z</time>
      </trkpt>
      <trkpt lat="48.06648" lon="5.44423">
        <ele>413</ele>
        <time>2023-07-14T07:16:47Z</time>
      </trkpt>
      <trkpt lat="48.06623" lon="5.4443">
        <ele>413</ele>
        <time>2023-07-14T07:17:09Z</time>
      </trkpt>
      <trkpt lat="48.06598" lon="5.44451">
        <ele>413</ele>
        <time>2023-07-14T07:17:32Z</time>
      </trkpt>
      <trkpt lat="48.06576" lon="5.44477">
        <ele>413</ele>
        <time>2023-07-14T07:17:57Z</time>
      </trkpt>
      <trkpt lat="48.06554" lon="5.44507">
        <ele>413</ele>
        <time>2023-07-14T07:18:22Z</time>
      </trkpt>
      <trkpt lat="48.06537" lon="5.44541">
        <ele>412</ele>
        <time>2023-07-14T07:18:47Z</time>
      </trkpt>
      <trkpt lat="48.06513" lon="5.44552">
        <ele>412</ele>
        <time>2023-07-14T07:19:11Z</time>
      </trkpt>
      <trkpt lat="48.06493" lon="5.4453">
        <ele>410</ele>
        <time>2023-07-14T07:19:32Z</time>
      </trkpt>
      <trkpt lat="48.06479" lon="5.44514">
        <ele>409</ele>
        <time>2023-07-14T07:19:47Z</time>
      </trkpt>
      <trkpt lat="48.06459" lon="5.44487">
        <ele>408</ele>
        <time>2023-07-14T07:20:11Z</time>
      </trkpt>
      <trkpt lat="48.06439" lon="5.44463">
        <ele>407</ele>
        <time>2023-07-14T07:20:34Z</time>
      </trkpt>
      <trkpt lat="48.0642" lon="5.44443">
        <ele>406</ele>
        <time>2023-07-14T07:20:54Z</time>
      </trkpt>
      <trkpt lat="48.064" lon="5.44416">
        <ele>405</ele>
        <time>2023-07-14T07:21:17Z</time>
      </trkpt>
      <trkpt lat="48.06378" lon="5.44387">
        <ele>403</ele>
        <time>2023-07-14T07:21:42Z</time>
      </trkpt>
      <trkpt lat="48.06357" lon="5.4436">
        <ele>402</ele>
        <time>2023-07-14T07:22:06Z</time>
      </trkpt>
      <trkpt lat="48.06339" lon="5.44336">
        <ele>401</ele>
        <time>2023-07-14T07:22:27Z</time>
      </trkpt>
      <trkpt lat="48.06322" lon="5.44315">
        <ele>400</ele>
        <time>2023-07-14T07:22:46Z</time>
      </trkpt>
      <trkpt lat="48.06302" lon="5.44287">
        <ele>399</ele>
        <time>2023-07-14T07:23:09Z</time>
      </trkpt>
      <trkpt lat="48.06283" lon="5.4426">
        <ele>397</ele>
        <time>2023-07-14T07:23:32Z</time>
      </trkpt>
      <trkpt lat="48.06265" lon="5.44233">
        <ele>395</ele>
        <time>2023-07-14T07:23:54Z</time>
      </trkpt>
      <trkpt lat="48.06245" lon="5.44207">
        <ele>394</ele>
        <time>2023-07-14T07:24:17Z</time>
      </trkpt>
      <trkpt lat="48.06226" lon="5.44181">
        <ele>394</ele>
        <time>2023-07-14T07:24:39Z</time>
      </trkpt>
      <trkpt lat="48.06199" lon="5.44165">
        <ele>393</ele>
        <time>2023-07-14T07:25:03Z</time>
      </trkpt>
      <trkpt lat="48.06197" lon="5.44169">
        <ele>394</ele>
        <time>2023-07-14T07:25:20Z</time>
      </trkpt>
      <trkpt lat="48.06197" lon="5.44174">
        <ele>394</ele>
        <time>2023-07-14T07:25:52Z</time>
      </trkpt>
      <trkpt lat="48.06183" lon="5.44165">
        <ele>394</ele>
        <time>2023-07-14T07:26:07Z</time>
      </trkpt>
      <trkpt lat="48.06158" lon="5.44176">
        <ele>394</ele>
        <time>2023-07-14T07:26:30Z</time>
      </trkpt>
      <trkpt lat="48.06155" lon="5.44178">
        <ele>394</ele>
        <time>2023-07-14T07:26:57Z</time>
      </trkpt>
      <trkpt lat="48.06133" lon="5.44195">
        <ele>394</ele>
        <time>2023-07-14T07:27:19Z</time>
      </trkpt>
      <trkpt lat="48.06111" lon="5.44212">
        <ele>394</ele>
        <time>2023-07-14T07:27:40Z</time>
      </trkpt>
      <trkpt lat="48.0609" lon="5.44232">
        <ele>394</ele>
        <time>2023-07-14T07:28:02Z</time>
      </trkpt>
      <trkpt lat="48.06081" lon="5.44242">
        <ele>394</ele>
        <time>2023-07-14T07:28:19Z</time>
      </trkpt>
      <trkpt lat="48.06081" lon="5.44248">
        <ele>395</ele>
        <time>2023-07-14T07:28:55Z</time>
      </trkpt>
      <trkpt lat="48.06082" lon="5.4425">
        <ele>394</ele>
        <time>2023-07-14T07:29:22Z</time>
      </trkpt>
      <trkpt lat="48.06086" lon="5.44235">
        <ele>394</ele>
        <time>2023-07-14T07:29:32Z</time>
      </trkpt>
      <trkpt lat="48.06106" lon="5.4422">
        <ele>394</ele>
        <time>2023-07-14T07:29:51Z</time>
      </trkpt>
      <trkpt lat="48.06108" lon="5.44218">
        <ele>395</ele>
        <time>2023-07-14T07:29:53Z</time>
      </trkpt>
      <trkpt lat="48.06113" lon="5.44218">
        <ele>395</ele>
        <time>2023-07-14T07:30:13Z</time>
      </trkpt>
      <trkpt lat="48.06112" lon="5.44221">
        <ele>394</ele>
        <time>2023-07-14T07:30:50Z</time>
      </trkpt>
      <trkpt lat="48.06112" lon="5.44223">
        <ele>394</ele>
        <time>2023-07-14T07:31:35Z</time>
      </trkpt>
      <trkpt lat="48.06109" lon="5.44221">
        <ele>394</ele>
        <time>2023-07-14T07:32:09Z</time>
      </trkpt>
      <trkpt lat="48.06081" lon="5.44237">
        <ele>394</ele>
        <time>2023-07-14T07:32:34Z</time>
      </trkpt>
      <trkpt lat="48.06054" lon="5.44256">
        <ele>393</ele>
        <time>2023-07-14T07:32:58Z</time>
      </trkpt>
      <trkpt lat="48.06025" lon="5.44269">
        <ele>394</ele>
        <time>2023-07-14T07:33:22Z</time>
      </trkpt>
      <trkpt lat="48.06001" lon="5.44274">
        <ele>395</ele>
        <time>2023-07-14T07:33:42Z</time>
      </trkpt>
      <trkpt lat="48.05973" lon="5.44287">
        <ele>395</ele>
        <time>2023-07-14T07:34:07Z</time>
      </trkpt>
      <trkpt lat="48.0595" lon="5.44293">
        <ele>396</ele>
        <time>2023-07-14T07:34:28Z</time>
      </trkpt>
      <trkpt lat="48.05931" lon="5.44295">
        <ele>397</ele>
        <time>2023-07-14T07:34:47Z</time>
      </trkpt>
      <trkpt lat="48.05925" lon="5.44298">
        <ele>398</ele>
        <time>2023-07-14T07:34:52Z</time>
      </trkpt>
      <trkpt lat="48.05902" lon="5.44307">
        <ele>399</ele>
        <time>2023-07-14T07:35:13Z</time>
      </trkpt>
      <trkpt lat="48.05877" lon="5.44315">
        <ele>401</ele>
        <time>2023-07-14T07:35:33Z</time>
      </trkpt>
      <trkpt lat="48.05853" lon="5.4432">
        <ele>401</ele>
        <time>2023-07-14T07:35:54Z</time>
      </trkpt>
      <trkpt lat="48.05832" lon="5.44315">
        <ele>401</ele>
        <time>2023-07-14T07:36:13Z</time>
      </trkpt>
      <trkpt lat="48.05812" lon="5.44308">
        <ele>401</ele>
        <time>2023-07-14T07:36:31Z</time>
      </trkpt>
      <trkpt lat="48.0579" lon="5.44299">
        <ele>402</ele>
        <time>2023-07-14T07:36:49Z</time>
      </trkpt>
      <trkpt lat="48.05761" lon="5.44295">
        <ele>402</ele>
        <time>2023-07-14T07:37:12Z</time>
      </trkpt>
      <trkpt lat="48.05735" lon="5.44292">
        <ele>403</ele>
        <time>2023-07-14T07:37:34Z</time>
      </trkpt>
      <trkpt lat="48.0571" lon="5.44288">
        <ele>405</ele>
        <time>2023-07-14T07:37:56Z</time>
      </trkpt>
      <trkpt lat="48.05687" lon="5.44299">
        <ele>405</ele>
        <time>2023-07-14T07:38:19Z</time>
      </trkpt>
      <trkpt lat="48.05667" lon="5.44316">
        <ele>407</ele>
        <time>2023-07-14T07:38:39Z</time>
      </trkpt>
      <trkpt lat="48.05644" lon="5.44335">
        <ele>408</ele>
        <time>2023-07-14T07:39:02Z</time>
      </trkpt>
      <trkpt lat="48.05616" lon="5.44348">
        <ele>409</ele>
        <time>2023-07-14T07:39:26Z</time>
      </trkpt>
      <trkpt lat="48.05593" lon="5.44354">
        <ele>409</ele>
        <time>2023-07-14T07:39:48Z</time>
      </trkpt>
      <trkpt lat="48.05564" lon="5.44357">
        <ele>410</ele>
        <time>2023-07-14T07:40:13Z</time>
      </trkpt>
      <trkpt lat="48.05536" lon="5.44359">
        <ele>411</ele>
        <time>2023-07-14T07:40:37Z</time>
      </trkpt>
      <trkpt lat="48.05512" lon="5.44363">
        <ele>412</ele>
        <time>2023-07-14T07:40:59Z</time>
      </trkpt>
      <trkpt lat="48.05484" lon="5.44371">
        <ele>412</ele>
        <time>2023-07-14T07:41:22Z</time>
      </trkpt>
      <trkpt lat="48.05457" lon="5.44387">
        <ele>412</ele>
        <time>2023-07-14T07:41:47Z</time>
      </trkpt>
      <trkpt lat="48.0543" lon="5.44399">
        <ele>413</ele>
        <time>2023-07-14T07:42:11Z</time>
      </trkpt>
      <trkpt lat="48.05404" lon="5.44412">
        <ele>414</ele>
        <time>2023-07-14T07:42:35Z</time>
      </trkpt>
      <trkpt lat="48.05379" lon="5.44424">
        <ele>413</ele>
        <time>2023-07-14T07:42:57Z</time>
      </trkpt>
      <trkpt lat="48.05352" lon="5.44436">
        <ele>414</ele>
        <time>2023-07-14T07:43:21Z</time>
      </trkpt>
      <trkpt lat="48.05326" lon="5.44445">
        <ele>414</ele>
        <time>2023-07-14T07:43:43Z</time>
      </trkpt>
      <trkpt lat="48.05298" lon="5.44453">
        <ele>415</ele>
        <time>2023-07-14T07:44:07Z</time>
      </trkpt>
      <trkpt lat="48.05267" lon="5.44463">
        <ele>416</ele>
        <time>2023-07-14T07:44:33Z</time>
      </trkpt>
      <trkpt lat="48.05238" lon="5.44482">
        <ele>415</ele>
        <time>2023-07-14T07:45:00Z</time>
      </trkpt>
      <trkpt lat="48.05208" lon="5.44497">
        <ele>415</ele>
        <time>2023-07-14T07:45:27Z</time>
      </trkpt>
      <trkpt lat="48.05181" lon="5.44508">
        <ele>414</ele>
        <time>2023-07-14T07:45:50Z</time>
      </trkpt>
      <trkpt lat="48.0516" lon="5.4453">
        <ele>415</ele>
        <time>2023-07-14T07:46:12Z</time>
      </trkpt>
      <trkpt lat="48.05137" lon="5.44549">
        <ele>414</ele>
        <time>2023-07-14T07:46:33Z</time>
      </trkpt>
      <trkpt lat="48.05114" lon="5.44562">
        <ele>415</ele>
        <time>2023-07-14T07:46:55Z</time>
      </trkpt>
      <trkpt lat="48.05091" lon="5.44569">
        <ele>414</ele>
        <time>2023-07-14T07:47:15Z</time>
      </trkpt>
      <trkpt lat="48.05063" lon="5.44574">
        <ele>416</ele>
        <time>2023-07-14T07:47:38Z</time>
      </trkpt>
      <trkpt lat="48.0504" lon="5.44578">
        <ele>416</ele>
        <time>2023-07-14T07:48:00Z</time>
      </trkpt>
      <trkpt lat="48.0502" lon="5.44581">
        <ele>419</ele>
        <time>2023-07-14T07:48:17Z</time>
      </trkpt>
      <trkpt lat="48.04995" lon="5.44585">
        <ele>421</ele>
        <time>2023-07-14T07:48:40Z</time>
      </trkpt>
      <trkpt lat="48.04986" lon="5.44589">
        <ele>422</ele>
        <time>2023-07-14T07:48:57Z</time>
      </trkpt>
      <trkpt lat="48.04982" lon="5.44589">
        <ele>422</ele>
        <time>2023-07-14T07:49:14Z</time>
      </trkpt>
      <trkpt lat="48.0496" lon="5.44611">
        <ele>421</ele>
        <time>2023-07-14T07:49:34Z</time>
      </trkpt>
      <trkpt lat="48.04947" lon="5.44645">
        <ele>420</ele>
        <time>2023-07-14T07:49:55Z</time>
      </trkpt>
      <trkpt lat="48.04925" lon="5.44656">
        <ele>420</ele>
        <time>2023-07-14T07:50:15Z</time>
      </trkpt>
      <trkpt lat="48.04899" lon="5.44649">
        <ele>420</ele>
        <time>2023-07-14T07:50:35Z</time>
      </trkpt>
      <trkpt lat="48.04873" lon="5.44646">
        <ele>420</ele>
        <time>2023-07-14T07:50:58Z</time>
      </trkpt>
      <trkpt lat="48.0485" lon="5.44653">
        <ele>418</ele>
        <time>2023-07-14T07:51:18Z</time>
      </trkpt>
      <trkpt lat="48.04831" lon="5.44674">
        <ele>417</ele>
        <time>2023-07-14T07:51:38Z</time>
      </trkpt>
      <trkpt lat="48.04814" lon="5.447">
        <ele>415</ele>
        <time>2023-07-14T07:51:58Z</time>
      </trkpt>
      <trkpt lat="48.04795" lon="5.44721">
        <ele>413</ele>
        <time>2023-07-14T07:52:18Z</time>
      </trkpt>
      <trkpt lat="48.04774" lon="5.44724">
        <ele>411</ele>
        <time>2023-07-14T07:52:36Z</time>
      </trkpt>
      <trkpt lat="48.04759" lon="5.44703">
        <ele>409</ele>
        <time>2023-07-14T07:52:53Z</time>
      </trkpt>
      <trkpt lat="48.04752" lon="5.44688">
        <ele>409</ele>
        <time>2023-07-14T07:53:05Z</time>
      </trkpt>
      <trkpt lat="48.04737" lon="5.44656">
        <ele>407</ele>
        <time>2023-07-14T07:53:27Z</time>
      </trkpt>
      <trkpt lat="48.04723" lon="5.44627">
        <ele>406</ele>
        <time>2023-07-14T07:53:46Z</time>
      </trkpt>
      <trkpt lat="48.0472" lon="5.4462">
        <ele>405</ele>
        <time>2023-07-14T07:53:51Z</time>
      </trkpt>
      <trkpt lat="48.04717" lon="5.44615">
        <ele>405</ele>
        <time>2023-07-14T07:53:55Z</time>
      </trkpt>
      <trkpt lat="48.04689" lon="5.44592">
        <ele>403</ele>
        <time>2023-07-14T07:54:19Z</time>
      </trkpt>
      <trkpt lat="48.04656" lon="5.44583">
        <ele>401</ele>
        <time>2023-07-14T07:54:43Z</time>
      </trkpt>
      <trkpt lat="48.04623" lon="5.44584">
        <ele>400</ele>
        <time>2023-07-14T07:55:07Z</time>
      </trkpt>
      <trkpt lat="48.04594" lon="5.44589">
        <ele>398</ele>
        <time>2023-07-14T07:55:29Z</time>
      </trkpt>
      <trkpt lat="48.04563" lon="5.44599">
        <ele>397</ele>
        <time>2023-07-14T07:55:53Z</time>
      </trkpt>
      <trkpt lat="48.04527" lon="5.44611">
        <ele>396</ele>
        <time>2023-07-14T07:56:21Z</time>
      </trkpt>
      <trkpt lat="48.04498" lon="5.44621">
        <ele>395</ele>
        <time>2023-07-14T07:56:44Z</time>
      </trkpt>
      <trkpt lat="48.04467" lon="5.44632">
        <ele>393</ele>
        <time>2023-07-14T07:57:08Z</time>
      </trkpt>
      <trkpt lat="48.04436" lon="5.44639">
        <ele>392</ele>
        <time>2023-07-14T07:57:34Z</time>
      </trkpt>
      <trkpt lat="48.04405" lon="5.4463">
        <ele>391</ele>
        <time>2023-07-14T07:57:57Z</time>
      </trkpt>
      <trkpt lat="48.04381" lon="5.44624">
        <ele>392</ele>
        <time>2023-07-14T07:58:16Z</time>
      </trkpt>
      <trkpt lat="48.04352" lon="5.44615">
        <ele>391</ele>
        <time>2023-07-14T07:58:40Z</time>
      </trkpt>
      <trkpt lat="48.04318" lon="5.44606">
        <ele>391</ele>
        <time>2023-07-14T07:59:07Z</time>
      </trkpt>
      <trkpt lat="48.04285" lon="5.44594">
        <ele>392</ele>
        <time>2023-07-14T07:59:33Z</time>
      </trkpt>
      <trkpt lat="48.04248" lon="5.44577">
        <ele>392</ele>
        <time>2023-07-14T08:00:04Z</time>
      </trkpt>
      <trkpt lat="48.04215" lon="5.44565">
        <ele>392</ele>
        <time>2023-07-14T08:00:31Z</time>
      </trkpt>
      <trkpt lat="48.04182" lon="5.44556">
        <ele>392</ele>
        <time>2023-07-14T08:00:57Z</time>
      </trkpt>
      <trkpt lat="48.04152" lon="5.44553">
        <ele>392</ele>
        <time>2023-07-14T08:01:22Z</time>
      </trkpt>
      <trkpt lat="48.04117" lon="5.44556">
        <ele>393</ele>
        <time>2023-07-14T08:01:49Z</time>
      </trkpt>
      <trkpt lat="48.04081" lon="5.44565">
        <ele>393</ele>
        <time>2023-07-14T08:02:17Z</time>
      </trkpt>
      <trkpt lat="48.04049" lon="5.4457">
        <ele>393</ele>
        <time>2023-07-14T08:02:42Z</time>
      </trkpt>
      <trkpt lat="48.04012" lon="5.44581">
        <ele>394</ele>
        <time>2023-07-14T08:03:11Z</time>
      </trkpt>
      <trkpt lat="48.03985" lon="5.44587">
        <ele>396</ele>
        <time>2023-07-14T08:03:33Z</time>
      </trkpt>
      <trkpt lat="48.03961" lon="5.44588">
        <ele>397</ele>
        <time>2023-07-14T08:03:53Z</time>
      </trkpt>
      <trkpt lat="48.0393" lon="5.44577">
        <ele>399</ele>
        <time>2023-07-14T08:04:18Z</time>
      </trkpt>
      <trkpt lat="48.03901" lon="5.44573">
        <ele>400</ele>
        <time>2023-07-14T08:04:43Z</time>
      </trkpt>
      <trkpt lat="48.03871" lon="5.44581">
        <ele>401</ele>
        <time>2023-07-14T08:05:08Z</time>
      </trkpt>
      <trkpt lat="48.03843" lon="5.44584">
        <ele>401</ele>
        <time>2023-07-14T08:05:30Z</time>
      </trkpt>
      <trkpt lat="48.03811" lon="5.44575">
        <ele>401</ele>
        <time>2023-07-14T08:05:54Z</time>
      </trkpt>
      <trkpt lat="48.03784" lon="5.44551">
        <ele>400</ele>
        <time>2023-07-14T08:06:20Z</time>
      </trkpt>
      <trkpt lat="48.03769" lon="5.44521">
        <ele>399</ele>
        <time>2023-07-14T08:06:41Z</time>
      </trkpt>
      <trkpt lat="48.03747" lon="5.44492">
        <ele>398</ele>
        <time>2023-07-14T08:07:04Z</time>
      </trkpt>
      <trkpt lat="48.03717" lon="5.44474">
        <ele>397</ele>
        <time>2023-07-14T08:07:31Z</time>
      </trkpt>
      <trkpt lat="48.03688" lon="5.44467">
        <ele>397</ele>
        <time>2023-07-14T08:07:53Z</time>
      </trkpt>
      <trkpt lat="48.03654" lon="5.44463">
        <ele>396</ele>
        <time>2023-07-14T08:08:20Z</time>
      </trkpt>
      <trkpt lat="48.0365" lon="5.44463">
        <ele>398</ele>
        <time>2023-07-14T08:08:23Z</time>
      </trkpt>
      <trkpt lat="48.03626" lon="5.44468">
        <ele>398</ele>
        <time>2023-07-14T08:08:43Z</time>
      </trkpt>
      <trkpt lat="48.036" lon="5.44483">
        <ele>398</ele>
        <time>2023-07-14T08:09:05Z</time>
      </trkpt>
      <trkpt lat="48.03574" lon="5.44509">
        <ele>398</ele>
        <time>2023-07-14T08:09:29Z</time>
      </trkpt>
      <trkpt lat="48.03553" lon="5.44541">
        <ele>398</ele>
        <time>2023-07-14T08:09:53Z</time>
      </trkpt>
      <trkpt lat="48.03531" lon="5.44573">
        <ele>398</ele>
        <time>2023-07-14T08:10:17Z</time>
      </trkpt>
      <trkpt lat="48.03514" lon="5.44603">
        <ele>398</ele>
        <time>2023-07-14T08:10:38Z</time>
      </trkpt>
      <trkpt lat="48.03494" lon="5.44627">
        <ele>399</ele>
        <time>2023-07-14T08:10:58Z</time>
      </trkpt>
      <trkpt lat="48.03474" lon="5.44656">
        <ele>399</ele>
        <time>2023-07-14T08:11:20Z</time>
      </trkpt>
      <trkpt lat="48.03457" lon="5.44656">
        <ele>399</ele>
        <time>2023-07-14T08:11:36Z</time>
      </trkpt>
      <trkpt lat="48.03455" lon="5.44653">
        <ele>399</ele>
        <time>2023-07-14T08:11:38Z</time>
      </trkpt>
      <trkpt lat="48.03446" lon="5.44608">
        <ele>399</ele>
        <time>2023-07-14T08:12:00Z</time>
      </trkpt>
      <trkpt lat="48.03437" lon="5.44573">
        <ele>398</ele>
        <time>2023-07-14T08:12:20Z</time>
      </trkpt>
      <trkpt lat="48.03427" lon="5.44535">
        <ele>398</ele>
        <time>2023-07-14T08:12:41Z</time>
      </trkpt>
      <trkpt lat="48.0342" lon="5.44494">
        <ele>397</ele>
        <time>2023-07-14T08:13:04Z</time>
      </trkpt>
      <trkpt lat="48.03411" lon="5.44458">
        <ele>397</ele>
        <time>2023-07-14T08:13:24Z</time>
      </trkpt>
      <trkpt lat="48.03408" lon="5.44429">
        <ele>395</ele>
        <time>2023-07-14T08:13:41Z</time>
      </trkpt>
      <trkpt lat="48.03409" lon="5.44421">
        <ele>395</ele>
        <time>2023-07-14T08:13:59Z</time>
      </trkpt>
    </trkseg>
  </trk>
</gpx>